createdAt,value
2023-04-27T00:01:04.219Z,54.44
2023-04-27T00:03:30.881Z,54.23
2023-04-27T00:05:57.741Z,54.27
2023-04-27T00:08:24.215Z,54.19
2023-04-27T00:10:50.778Z,54.30
2023-04-27T00:13:19.338Z,54.57
2023-04-27T00:15:45.744Z,54.54
2023-04-27T00:18:12.326Z,54.66
2023-04-27T00:20:38.817Z,54.88
2023-04-27T00:23:05.190Z,54.64
2023-04-27T00:25:31.746Z,54.90
2023-04-27T00:28:01.012Z,54.79
2023-04-27T00:30:27.372Z,54.62
2023-04-27T00:32:53.840Z,54.94
2023-04-27T00:35:20.481Z,54.39
2023-04-27T00:37:46.873Z,54.39
2023-04-27T00:40:13.203Z,54.06
2023-04-27T00:42:39.593Z,54.07
2023-04-27T00:45:06.264Z,54.05
2023-04-27T00:47:36.598Z,54.30
2023-04-27T00:50:03.838Z,54.52
2023-04-27T00:52:30.196Z,54.11
2023-04-27T00:54:56.609Z,54.04
2023-04-27T00:57:23.425Z,54.31
2023-04-27T00:59:49.909Z,54.86
2023-04-27T01:02:16.762Z,54.77
2023-04-27T01:04:45.410Z,55.10
2023-04-27T01:07:12.109Z,55.22
2023-04-27T01:09:38.491Z,55.54
2023-04-27T01:12:04.958Z,56.94
2023-04-27T01:14:31.391Z,57.30
2023-04-27T01:16:58.284Z,57.38
2023-04-27T01:19:24.819Z,57.82
2023-04-27T01:21:51.260Z,57.48
2023-04-27T01:24:17.805Z,57.37
2023-04-27T01:26:44.190Z,56.85
2023-04-27T01:29:11.270Z,57.13
2023-04-27T01:31:37.903Z,57.70
2023-04-27T01:34:04.289Z,58.45
2023-04-27T01:36:32.438Z,59.09
2023-04-27T01:38:58.777Z,59.48
2023-04-27T01:41:25.342Z,59.72
2023-04-27T01:43:51.767Z,59.52
2023-04-27T01:46:18.217Z,59.49
2023-04-27T01:48:44.606Z,59.43
2023-04-27T01:51:11.110Z,59.67
2023-04-27T01:53:37.533Z,59.73
2023-04-27T01:56:03.969Z,59.15
2023-04-27T01:58:32.681Z,59.46
2023-04-27T02:00:59.097Z,60.29
2023-04-27T02:03:26.132Z,59.93
2023-04-27T02:05:52.644Z,60.60
2023-04-27T02:08:19.091Z,59.96
2023-04-27T02:10:45.706Z,60.85
2023-04-27T02:13:12.141Z,60.90
2023-04-27T02:15:38.671Z,60.52
2023-04-27T02:18:05.119Z,60.00
2023-04-27T02:20:31.567Z,61.07
2023-04-27T02:22:59.850Z,61.51
2023-04-27T02:25:26.788Z,60.49
2023-04-27T02:27:53.678Z,60.42
2023-04-27T02:30:21.354Z,60.02
2023-04-27T02:32:48.349Z,59.93
2023-04-27T02:35:14.794Z,60.59
2023-04-27T02:37:41.694Z,60.80
2023-04-27T02:40:08.409Z,60.01
2023-04-27T02:42:34.886Z,60.13
2023-04-27T02:45:01.274Z,60.88
2023-04-27T02:47:27.721Z,60.49
2023-04-27T02:49:54.086Z,60.54
2023-04-27T02:52:20.591Z,60.47
2023-04-27T02:54:47.032Z,60.40
2023-04-27T02:57:13.421Z,60.91
2023-04-27T02:59:39.765Z,61.13
2023-04-27T03:02:06.125Z,61.15
2023-04-27T03:04:32.505Z,61.05
2023-04-27T03:06:58.970Z,61.81
2023-04-27T03:09:25.452Z,61.73
2023-04-27T03:11:52.750Z,61.98
2023-04-27T03:14:20.578Z,62.30
2023-04-27T03:16:47.058Z,61.52
2023-04-27T03:19:13.790Z,61.97
2023-04-27T03:21:40.498Z,61.20
2023-04-27T03:24:06.853Z,61.38
2023-04-27T03:26:33.277Z,61.13
2023-04-27T03:28:59.620Z,60.07
2023-04-27T03:31:28.208Z,60.59
2023-04-27T03:33:54.604Z,60.35
2023-04-27T03:36:21.995Z,60.31
2023-04-27T03:38:48.363Z,57.96
2023-04-27T03:41:14.950Z,59.37
2023-04-27T03:43:41.362Z,58.00
2023-04-27T03:46:10.957Z,58.51
2023-04-27T03:48:37.391Z,58.34
2023-04-27T03:51:03.805Z,58.41
2023-04-27T03:53:30.581Z,57.84
2023-04-27T03:55:57.157Z,58.70
2023-04-27T03:58:23.573Z,59.44
2023-04-27T04:01:18.968Z,58.62
2023-04-27T04:03:47.733Z,57.32
2023-04-27T04:06:14.293Z,57.34
2023-04-27T04:08:40.674Z,57.48
2023-04-27T04:11:07.051Z,57.54
2023-04-27T04:13:36.058Z,58.23
2023-04-27T04:16:02.820Z,57.97
2023-04-27T04:18:29.462Z,58.59
2023-04-27T04:20:56.243Z,59.46
2023-04-27T04:23:22.693Z,58.36
2023-04-27T04:25:49.854Z,59.11
2023-04-27T04:28:16.794Z,59.88
2023-04-27T04:30:43.606Z,60.54
2023-04-27T04:33:10.000Z,58.85
2023-04-27T04:35:36.489Z,60.41
2023-04-27T04:38:02.949Z,58.92
2023-04-27T04:40:29.294Z,59.38
2023-04-27T04:42:55.851Z,59.49
2023-04-27T04:45:22.323Z,61.01
2023-04-27T04:47:48.770Z,58.57
2023-04-27T04:50:15.300Z,58.72
2023-04-27T04:52:41.735Z,59.22
2023-04-27T04:55:08.131Z,57.96
2023-04-27T04:57:34.559Z,58.13
2023-04-27T05:00:01.902Z,58.07
2023-04-27T05:02:28.475Z,58.02
2023-04-27T05:04:57.021Z,57.22
2023-04-27T05:07:25.107Z,57.60
2023-04-27T05:09:51.588Z,56.83
2023-04-27T05:12:17.924Z,57.35
2023-04-27T05:14:44.450Z,56.98
2023-04-27T05:17:10.780Z,56.60
2023-04-27T05:19:37.137Z,56.79
2023-04-27T05:22:03.594Z,58.58
2023-04-27T05:24:30.041Z,57.48
2023-04-27T05:26:56.452Z,57.55
2023-04-27T05:29:22.881Z,57.06
2023-04-27T05:31:49.345Z,58.17
2023-04-27T05:34:15.913Z,56.83
2023-04-27T05:36:42.311Z,56.96
2023-04-27T05:39:08.667Z,56.41
2023-04-27T05:41:35.136Z,56.67
2023-04-27T05:44:01.705Z,56.94
2023-04-27T05:46:28.106Z,55.84
2023-04-27T05:48:55.091Z,56.32
2023-04-27T05:51:21.765Z,56.30
2023-04-27T05:53:48.104Z,55.73
2023-04-27T05:56:14.589Z,56.04
2023-04-27T05:58:42.059Z,55.72
2023-04-27T06:01:08.468Z,55.73
2023-04-27T06:03:34.937Z,55.20
2023-04-27T06:06:02.285Z,54.27
2023-04-27T06:08:28.755Z,54.85
2023-04-27T06:10:55.138Z,54.90
2023-04-27T06:13:21.626Z,54.94
2023-04-27T06:15:48.082Z,55.24
2023-04-27T06:18:14.517Z,54.35
2023-04-27T06:20:42.006Z,53.65
2023-04-27T06:23:08.402Z,52.30
2023-04-27T06:25:35.716Z,52.28
2023-04-27T06:28:02.066Z,52.27
2023-04-27T06:30:28.433Z,52.04
2023-04-27T06:32:55.185Z,52.33
2023-04-27T06:35:21.784Z,50.71
2023-04-27T06:37:48.192Z,51.86
2023-04-27T06:40:14.741Z,51.53
2023-04-27T06:42:41.103Z,51.52
2023-04-27T06:45:08.466Z,50.62
2023-04-27T06:47:34.833Z,51.36
2023-04-27T06:50:01.240Z,50.72
2023-04-27T06:52:27.590Z,51.11
2023-04-27T06:54:53.977Z,50.52
2023-04-27T06:57:20.373Z,50.84
2023-04-27T06:59:46.746Z,50.00
2023-04-27T07:02:13.389Z,49.16
2023-04-27T07:04:39.995Z,48.13
2023-04-27T07:07:06.405Z,47.95
2023-04-27T07:09:33.274Z,47.94
2023-04-27T07:12:01.215Z,47.97
2023-04-27T07:14:27.550Z,49.60
2023-04-27T07:16:53.975Z,48.63
2023-04-27T07:19:20.424Z,48.74
2023-04-27T07:21:46.833Z,48.85
2023-04-27T07:24:13.193Z,48.63
2023-04-27T07:26:39.589Z,48.96
2023-04-27T07:29:14.555Z,48.73
2023-04-27T07:31:51.870Z,47.97
2023-04-27T07:34:18.543Z,48.57
2023-04-27T07:36:45.166Z,48.65
2023-04-27T07:39:11.701Z,49.79
2023-04-27T07:41:39.215Z,48.20
2023-04-27T07:44:05.632Z,47.38
2023-04-27T07:46:32.006Z,47.19
2023-04-27T07:49:00.342Z,48.13
2023-04-27T07:51:28.714Z,47.30
2023-04-27T07:53:55.674Z,47.57
2023-04-27T07:56:22.066Z,47.28
2023-04-27T07:58:48.409Z,46.49
2023-04-27T08:01:14.820Z,47.39
2023-04-27T08:03:41.397Z,46.64
2023-04-27T08:06:08.238Z,47.06
2023-04-27T08:08:34.960Z,46.81
2023-04-27T08:11:01.388Z,48.32
2023-04-27T08:13:27.804Z,47.36
2023-04-27T08:15:58.399Z,47.12
2023-04-27T08:18:25.050Z,47.16
2023-04-27T08:20:51.436Z,47.50
2023-04-27T08:23:17.796Z,48.08
2023-04-27T08:25:44.187Z,47.00
2023-04-27T08:28:10.570Z,46.76
2023-04-27T08:30:36.993Z,45.10
2023-04-27T08:33:03.497Z,43.77
2023-04-27T08:35:29.950Z,44.74
2023-04-27T08:37:56.440Z,43.51
2023-04-27T08:40:24.728Z,43.74
2023-04-27T08:42:51.061Z,43.34
2023-04-27T08:45:17.808Z,43.45
2023-04-27T08:47:44.261Z,43.51
2023-04-27T08:50:10.764Z,44.38
2023-04-27T08:52:37.122Z,45.00
2023-04-27T08:55:04.804Z,49.73
2023-04-27T08:57:31.260Z,41.17
2023-04-27T08:59:57.635Z,39.81
2023-04-27T09:02:24.775Z,39.41
2023-04-27T09:04:51.657Z,40.56
2023-04-27T09:07:18.102Z,40.21
2023-04-27T09:09:44.532Z,40.26
2023-04-27T09:12:11.396Z,39.66
2023-04-27T09:14:37.731Z,38.64
2023-04-27T09:17:05.389Z,39.18
2023-04-27T09:19:31.818Z,39.83
2023-04-27T09:21:58.518Z,39.11
2023-04-27T09:24:24.880Z,38.73
2023-04-27T09:26:51.360Z,38.47
2023-04-27T09:29:17.727Z,40.47
2023-04-27T09:31:44.282Z,41.57
2023-04-27T09:34:10.701Z,38.64
2023-04-27T09:36:37.120Z,39.73
2023-04-27T09:39:04.759Z,37.13
2023-04-27T09:41:31.300Z,37.66
2023-04-27T09:43:58.082Z,37.45
2023-04-27T09:46:24.656Z,36.41
2023-04-27T09:48:51.486Z,36.75
2023-04-27T09:51:17.862Z,36.76
2023-04-27T09:53:44.255Z,35.19
2023-04-27T09:56:10.602Z,35.03
2023-04-27T09:58:37.081Z,33.67
2023-04-27T10:01:03.576Z,34.69
2023-04-27T10:03:30.074Z,36.54
2023-04-27T10:05:57.080Z,35.46
2023-04-27T10:08:24.611Z,35.68
2023-04-27T10:10:50.965Z,35.26
2023-04-27T10:13:17.321Z,34.33
2023-04-27T10:15:43.737Z,33.02
2023-04-27T10:18:11.391Z,33.23
2023-04-27T10:20:37.787Z,33.87
2023-04-27T10:23:04.645Z,34.46
2023-04-27T10:25:30.995Z,34.49
2023-04-27T10:27:57.638Z,34.63
2023-04-27T10:30:24.172Z,34.24
2023-04-27T10:32:51.385Z,33.41
2023-04-27T10:35:17.881Z,33.11
2023-04-27T10:37:44.258Z,32.78
2023-04-27T10:40:10.643Z,33.00
2023-04-27T10:42:37.136Z,33.67
2023-04-27T10:45:03.515Z,33.56
2023-04-27T10:47:29.929Z,32.42
2023-04-27T10:49:56.456Z,30.47
2023-04-27T10:52:22.862Z,30.67
2023-04-27T10:54:49.270Z,32.43
2023-04-27T10:57:16.721Z,32.30
2023-04-27T10:59:43.116Z,32.12
2023-04-27T11:02:11.217Z,32.54
2023-04-27T11:04:38.496Z,32.86
2023-04-27T11:07:05.002Z,32.80
2023-04-27T11:09:31.467Z,31.65
2023-04-27T11:11:58.084Z,31.56
2023-04-27T11:14:24.465Z,30.38
2023-04-27T11:16:51.139Z,31.79
2023-04-27T11:19:17.567Z,32.23
2023-04-27T11:21:43.959Z,32.11
2023-04-27T11:24:12.117Z,33.98
2023-04-27T11:26:39.943Z,32.91
2023-04-27T11:29:09.416Z,31.76
2023-04-27T11:31:35.786Z,32.70
2023-04-27T11:34:02.269Z,33.34
2023-04-27T11:36:28.881Z,34.09
2023-04-27T11:38:55.455Z,32.83
2023-04-27T11:41:23.250Z,32.91
2023-04-27T11:43:49.957Z,32.27
2023-04-27T11:46:16.435Z,32.40
2023-04-27T11:48:42.885Z,32.81
2023-04-27T11:51:09.333Z,32.03
2023-04-27T11:53:36.251Z,31.69
2023-04-27T11:56:02.685Z,34.05
2023-04-27T11:58:32.078Z,33.47
2023-04-27T12:00:58.499Z,33.36
2023-04-27T12:03:26.171Z,32.88
2023-04-27T12:05:52.973Z,33.11
2023-04-27T12:08:19.501Z,33.59
2023-04-27T12:10:45.956Z,32.40
2023-04-27T12:13:12.528Z,30.60
2023-04-27T12:15:38.964Z,31.39
2023-04-27T12:18:05.449Z,31.94
2023-04-27T12:20:31.884Z,32.37
2023-04-27T12:22:58.660Z,29.80
2023-04-27T12:25:25.030Z,29.32
2023-04-27T12:27:51.820Z,31.98
2023-04-27T12:30:18.419Z,30.73
2023-04-27T12:32:44.825Z,30.12
2023-04-27T12:35:11.219Z,28.61
2023-04-27T12:37:37.924Z,29.31
2023-04-27T12:40:07.866Z,29.37
2023-04-27T12:42:34.220Z,28.50
2023-04-27T12:45:00.688Z,28.77
2023-04-27T12:47:49.804Z,29.85
2023-04-27T12:50:13.744Z,28.98
2023-04-27T12:52:40.094Z,29.45
2023-04-27T12:55:06.487Z,30.19
2023-04-27T12:57:33.448Z,29.74
2023-04-27T13:00:01.791Z,29.92
2023-04-27T13:02:28.544Z,30.84
2023-04-27T13:04:55.517Z,31.01
2023-04-27T13:07:22.097Z,29.85
2023-04-27T13:09:48.476Z,29.45
2023-04-27T13:12:14.830Z,29.40
2023-04-27T13:14:42.296Z,29.93
2023-04-27T13:17:08.680Z,28.68
2023-04-27T13:19:35.003Z,29.26
2023-04-27T13:22:01.634Z,29.15
2023-04-27T13:24:29.379Z,29.32
2023-04-27T13:26:55.765Z,30.03
2023-04-27T13:29:24.341Z,30.26
2023-04-27T13:31:51.025Z,30.24
2023-04-27T13:34:18.231Z,30.92
2023-04-27T13:36:44.690Z,31.03
2023-04-27T13:39:11.070Z,30.80
2023-04-27T13:41:37.495Z,31.13
2023-04-27T13:44:04.289Z,30.00
2023-04-27T13:46:30.775Z,30.05
2023-04-27T13:48:57.342Z,30.28
2023-04-27T13:51:25.031Z,29.34
2023-04-27T13:53:51.451Z,30.33
2023-04-27T13:56:17.826Z,30.87
2023-04-27T13:58:44.192Z,30.45
2023-04-27T14:01:10.769Z,30.00
2023-04-27T14:03:37.393Z,30.08
2023-04-27T14:06:04.064Z,29.09
2023-04-27T14:08:30.470Z,29.24
2023-04-27T14:10:56.866Z,29.32
2023-04-27T14:13:23.245Z,30.43
2023-04-27T14:15:49.601Z,29.33
2023-04-27T14:18:16.225Z,30.16
2023-04-27T14:20:42.688Z,30.08
2023-04-27T14:23:09.168Z,30.51
2023-04-27T14:25:35.589Z,29.58
2023-04-27T14:28:02.195Z,29.27
2023-04-27T14:30:28.865Z,29.30
2023-04-27T14:32:55.386Z,30.09
2023-04-27T14:35:23.683Z,30.23
2023-04-27T14:37:50.092Z,30.03
2023-04-27T14:40:16.541Z,29.19
2023-04-27T14:42:42.977Z,29.35
2023-04-27T14:45:09.391Z,29.72
2023-04-27T14:47:35.895Z,30.47
2023-04-27T14:50:02.296Z,30.41
2023-04-27T14:52:28.909Z,30.43
2023-04-27T14:54:55.517Z,30.49
2023-04-27T14:57:21.883Z,30.33
2023-04-27T14:59:48.241Z,29.90
2023-04-27T15:02:14.711Z,29.30
2023-04-27T15:04:41.543Z,30.70
2023-04-27T15:07:09.743Z,30.38
2023-04-27T15:09:36.189Z,30.38
2023-04-27T15:12:03.572Z,30.14
2023-04-27T15:14:29.913Z,30.02
2023-04-27T15:16:56.502Z,29.86
2023-04-27T15:19:22.850Z,30.26
2023-04-27T15:21:49.318Z,30.42
2023-04-27T15:24:15.852Z,30.10
2023-04-27T15:26:42.224Z,30.96
2023-04-27T15:29:08.586Z,30.76
2023-04-27T15:31:34.964Z,31.41
2023-04-27T15:34:01.392Z,31.54
2023-04-27T15:36:28.393Z,31.00
2023-04-27T15:38:54.812Z,31.60
2023-04-27T15:41:21.927Z,30.60
2023-04-27T15:43:48.350Z,31.63
2023-04-27T15:46:15.545Z,30.44
2023-04-27T15:48:41.938Z,29.70
2023-04-27T15:51:10.249Z,31.21
2023-04-27T15:53:37.141Z,30.68
2023-04-27T15:56:03.529Z,30.96
2023-04-27T15:58:29.928Z,31.22
2023-04-27T16:00:56.349Z,31.10
2023-04-27T16:03:22.966Z,32.28
2023-04-27T16:05:49.403Z,31.75
2023-04-27T16:08:15.737Z,32.04
2023-04-27T16:10:42.131Z,31.82
2023-04-27T16:13:08.495Z,31.93
2023-04-27T16:15:35.400Z,31.85
2023-04-27T16:18:02.342Z,31.54
2023-04-27T16:20:30.787Z,31.19
2023-04-27T16:22:57.289Z,31.38
2023-04-27T16:25:23.668Z,31.50
2023-04-27T16:27:50.096Z,31.21
2023-04-27T16:30:16.521Z,31.80
2023-04-27T16:32:42.965Z,32.41
2023-04-27T16:35:09.428Z,31.96
2023-04-27T16:37:36.005Z,32.02
2023-04-27T16:40:06.356Z,32.12
2023-04-27T16:42:33.218Z,32.23
2023-04-27T16:45:02.071Z,32.19
2023-04-27T16:47:28.676Z,33.13
2023-04-27T16:49:55.035Z,33.31
2023-04-27T16:52:21.711Z,32.95
2023-04-27T16:54:48.188Z,32.21
2023-04-27T16:57:14.659Z,32.71
2023-04-27T16:59:41.521Z,32.44
2023-04-27T17:02:23.193Z,32.11
2023-04-27T17:04:51.329Z,32.63
2023-04-27T17:07:17.707Z,32.95
2023-04-27T17:09:44.101Z,32.94
2023-04-27T17:12:14.689Z,32.34
2023-04-27T17:14:41.872Z,32.29
2023-04-27T17:17:08.272Z,32.00
2023-04-27T17:19:34.657Z,32.02
2023-04-27T17:22:01.216Z,32.70
2023-04-27T17:24:27.642Z,32.62
2023-04-27T17:26:54.005Z,32.22
2023-04-27T17:29:21.441Z,32.37
2023-04-27T17:31:47.935Z,32.81
2023-04-27T17:34:14.485Z,32.98
2023-04-27T17:36:40.974Z,33.53
2023-04-27T17:39:07.517Z,33.04
2023-04-27T17:41:35.425Z,33.78
2023-04-27T17:44:03.888Z,34.44
2023-04-27T17:46:30.563Z,33.95
2023-04-27T17:48:57.014Z,33.53
2023-04-27T17:51:23.449Z,34.32
2023-04-27T17:53:49.832Z,33.65
2023-04-27T17:56:16.368Z,34.80
2023-04-27T17:58:42.695Z,34.34
2023-04-27T18:01:10.346Z,34.89
2023-04-27T18:03:36.768Z,34.80
2023-04-27T18:06:03.141Z,34.25
2023-04-27T18:08:29.526Z,34.82
2023-04-27T18:10:56.180Z,34.65
2023-04-27T18:13:22.557Z,34.78
2023-04-27T18:15:48.965Z,35.80
2023-04-27T18:18:20.831Z,34.76
2023-04-27T18:20:48.127Z,35.63
2023-04-27T18:23:14.549Z,34.92
2023-04-27T18:25:40.943Z,34.72
2023-04-27T18:28:07.534Z,34.83
2023-04-27T18:30:34.111Z,35.60
2023-04-27T18:33:01.342Z,35.80
2023-04-27T18:35:27.728Z,35.38
2023-04-27T18:37:54.061Z,35.66
2023-04-27T18:40:20.784Z,36.23
2023-04-27T18:42:47.109Z,36.11
2023-04-27T18:45:14.004Z,36.09
2023-04-27T18:47:40.482Z,36.09
2023-04-27T18:50:07.499Z,36.37
2023-04-27T18:52:34.217Z,37.74
2023-04-27T18:55:01.005Z,36.43
2023-04-27T18:57:27.449Z,37.41
2023-04-27T18:59:54.947Z,37.07
2023-04-27T19:02:21.390Z,37.22
2023-04-27T19:04:56.998Z,38.35
2023-04-27T19:07:28.291Z,37.58
2023-04-27T19:09:57.473Z,37.61
2023-04-27T19:12:24.312Z,37.75
2023-04-27T19:14:51.109Z,37.55
2023-04-27T19:17:17.962Z,38.07
2023-04-27T19:19:45.806Z,38.60
2023-04-27T19:22:12.385Z,38.67
2023-04-27T19:24:39.076Z,37.98
2023-04-27T19:27:05.461Z,38.09
2023-04-27T19:29:31.796Z,37.99
2023-04-27T19:32:00.410Z,37.97
2023-04-27T19:34:26.821Z,37.57
2023-04-27T19:36:53.338Z,38.41
2023-04-27T19:39:19.700Z,38.45
2023-04-27T19:41:46.105Z,37.78
2023-04-27T19:44:12.868Z,37.84
2023-04-27T19:46:39.681Z,38.37
2023-04-27T19:49:06.579Z,38.61
2023-04-27T19:51:33.079Z,38.86
2023-04-27T19:53:59.455Z,38.16
2023-04-27T19:56:25.868Z,37.72
2023-04-27T19:58:52.827Z,38.55
2023-04-27T20:01:20.144Z,38.01
2023-04-27T20:03:46.727Z,38.15
2023-04-27T20:06:13.402Z,38.37
2023-04-27T20:08:39.859Z,38.42
2023-04-27T20:11:06.334Z,38.69
2023-04-27T20:13:32.741Z,38.76
2023-04-27T20:15:59.254Z,38.03
2023-04-27T20:18:26.102Z,38.35
2023-04-27T20:20:52.513Z,38.33
2023-04-27T20:23:19.047Z,37.67
2023-04-27T20:25:45.595Z,37.91
2023-04-27T20:28:12.240Z,37.99
2023-04-27T20:30:38.554Z,38.19
2023-04-27T20:33:05.103Z,38.46
2023-04-27T20:35:31.506Z,37.98
2023-04-27T20:37:57.995Z,38.52
2023-04-27T20:40:24.477Z,38.35
2023-04-27T20:42:51.761Z,38.03
2023-04-27T20:45:18.809Z,38.65
2023-04-27T20:47:45.371Z,37.96
2023-04-27T20:50:12.179Z,38.38
2023-04-27T20:52:38.617Z,38.08
2023-04-27T20:55:05.048Z,37.74
2023-04-27T20:57:31.469Z,38.07
2023-04-27T20:59:58.031Z,37.32
2023-04-27T21:02:24.532Z,37.54
2023-04-27T21:04:51.056Z,37.62
2023-04-27T21:07:17.471Z,37.86
2023-04-27T21:09:43.826Z,37.14
2023-04-27T21:12:10.262Z,37.69
2023-04-27T21:14:37.461Z,37.57
2023-04-27T21:17:04.185Z,37.45
2023-04-27T21:19:30.727Z,37.90
2023-04-27T21:21:57.104Z,37.13
2023-04-27T21:24:23.783Z,37.73
2023-04-27T21:26:50.425Z,37.27
2023-04-27T21:29:16.815Z,37.12
2023-04-27T21:31:43.173Z,37.54
2023-04-27T21:34:10.007Z,37.28
2023-04-27T21:36:37.301Z,37.44
2023-04-27T21:39:04.027Z,37.44
2023-04-27T21:41:30.401Z,37.72
2023-04-27T21:43:56.858Z,37.60
2023-04-27T21:46:23.981Z,37.19
2023-04-27T21:48:50.454Z,37.68
2023-04-27T21:51:16.970Z,38.02
2023-04-27T21:53:43.317Z,37.69
2023-04-27T21:56:10.014Z,37.25
2023-04-27T21:58:36.373Z,37.82
2023-04-27T22:01:02.815Z,37.06
2023-04-27T22:03:29.349Z,37.26
2023-04-27T22:05:57.763Z,37.42
2023-04-27T22:08:24.307Z,37.39
2023-04-27T22:10:50.921Z,37.43
2023-04-27T22:13:19.217Z,39.97
2023-04-27T22:15:46.473Z,37.97
2023-04-27T22:18:14.461Z,37.38
2023-04-27T22:20:41.065Z,37.17
2023-04-27T22:23:07.612Z,37.84
2023-04-27T22:25:34.834Z,37.80
2023-04-27T22:28:01.665Z,38.69
2023-04-27T22:30:28.460Z,38.22
2023-04-27T22:32:54.905Z,37.97
2023-04-27T22:37:50.714Z,37.83
2023-04-27T22:40:17.144Z,37.93
2023-04-27T22:42:44.755Z,38.44
2023-04-27T22:45:11.840Z,37.50
2023-04-27T22:47:38.385Z,38.00
2023-04-27T22:50:04.952Z,38.00
2023-04-27T22:52:33.752Z,38.36
2023-04-27T22:55:01.712Z,37.70
2023-04-27T22:57:28.369Z,37.66
2023-04-27T22:59:54.744Z,38.08
2023-04-27T23:02:21.254Z,39.00
2023-04-27T23:04:48.559Z,38.42
2023-04-27T23:07:18.355Z,38.79
2023-04-27T23:09:44.779Z,38.69
2023-04-27T23:12:11.154Z,38.35
2023-04-27T23:14:37.655Z,39.18
2023-04-27T23:17:04.326Z,39.14
2023-04-27T23:19:30.862Z,38.74
2023-04-27T23:21:57.261Z,38.65
2023-04-27T23:24:23.648Z,38.85
2023-04-27T23:26:50.006Z,38.87
2023-04-27T23:29:16.394Z,39.95
2023-04-27T23:31:42.883Z,39.42
2023-04-27T23:34:09.278Z,41.48
2023-04-27T23:36:35.667Z,43.11
2023-04-27T23:39:02.464Z,42.42
2023-04-27T23:41:29.038Z,43.20
2023-04-27T23:43:55.422Z,43.60
2023-04-27T23:46:22.025Z,44.61
2023-04-27T23:48:48.450Z,45.38
2023-04-27T23:51:14.821Z,45.72
2023-04-27T23:53:41.212Z,46.69
2023-04-27T23:56:07.570Z,47.67
2023-04-27T23:58:33.954Z,47.89
